Terminal Aerodrome Forecast
Issued by NWS

Home | Current Version | Previous Version | Text Only | Print | Product List | Glossary On
Versions: 1 2 3 4 5 6 7 8 9 10 11 12 13 14 15 16 17 18 19 20 21 22
000
FTUS41 KRNK 230532
TAFLWB
TAF
KLWB 230532Z 2306/2406 00000KT 1/4SM FG OVC001
      TEMPO 2307/2308 5SM SHRA BR SCT001 BKN060
     FM230800 00000KT 1/4SM FG OVC001
     FM231300 VRB03KT 3SM BR BKN002
     FM231500 32005KT P6SM SCT035=

USA.gov is the U.S. government's official web portal to all federal, state and local government web resources and services.